DNMM/LOS METAR and TAF weather

Enter ICAO airport designator
Station Type Date Time Source
DNMM METAR 2020/03/29 12:00 UTC NOAA

DNMM 291200Z 24006KT 9999 SCT016 35/25 Q1011 NOSIG


Station Type Date Time Source
DNMM Decoded METAR 2020/03/29 12:00 UTC NOAA

Lagos / Ikeja, Nigeria (DNMM) 06-35N 003-20E 38M
Mar 29, 2020 - 08:00 AM EDT / 2020.03.29 1200 UTC
Wind: from the WSW (240 degrees) at 7 MPH (6 KT):0
Visibility: greater than 7 mile(s):0
Sky conditions: partly cloudy
Temperature: 95 F (35 C)
Heat index: 109.8 F (43.2 C):1
Dew Point: 77 F (25 C)
Relative Humidity: 56%
Pressure (altimeter): 29.85 in. Hg (1011 hPa)
ob: DNMM 291200Z 24006KT 9999 SCT016 35/25 Q1011 NOSIG
cycle: 12

Station Type Date Time Source
DNMM TAF 2020/03/29 12:39 UTC NOAA

TAF TAF DNMM 291100Z 2912/3018 22010KT 9999 BKN013
TEMPO 2915/2918 SCT013 FEW020CB PROB30 2917/2919 TS
BECMG 2918/2920 VRB02KT SCT010
BECMG 3009/3011 23012KT BKN013
TEMPO 3012/3017 BKN013 FEW020CB

Example: see airport list